createdAt,value
2023-02-20T00:00:29.986Z,3.10
2023-02-20T00:02:57.794Z,3.80
2023-02-20T00:05:26.276Z,4.10
2023-02-20T00:07:53.925Z,4.23
2023-02-20T00:10:24.202Z,3.70
2023-02-20T00:12:51.699Z,3.87
2023-02-20T00:15:20.259Z,4.43
2023-02-20T00:17:48.214Z,4.67
2023-02-20T00:20:16.993Z,4.80
2023-02-20T00:22:44.444Z,4.97
2023-02-20T00:25:12.573Z,4.57
2023-02-20T00:27:41.321Z,4.23
2023-02-20T00:30:11.710Z,4.60
2023-02-20T00:32:39.124Z,4.27
2023-02-20T00:35:07.187Z,4.67
2023-02-20T00:37:34.641Z,4.70
2023-02-20T00:40:02.175Z,4.80
2023-02-20T00:42:29.759Z,4.33
2023-02-20T00:44:58.692Z,4.90
2023-02-20T00:47:26.374Z,4.83
2023-02-20T00:49:53.831Z,5.03
2023-02-20T00:52:21.378Z,5.30
2023-02-20T00:54:48.812Z,5.77
2023-02-20T00:57:16.272Z,5.10
2023-02-20T00:59:43.745Z,5.47
2023-02-20T01:02:12.486Z,5.87
2023-02-20T01:04:39.940Z,5.57
2023-02-20T01:07:07.449Z,5.43
2023-02-20T01:09:34.907Z,4.70
2023-02-20T01:12:02.436Z,5.53
2023-02-20T01:14:29.879Z,5.37
2023-02-20T01:16:57.525Z,5.20
2023-02-20T01:19:26.964Z,4.87
2023-02-20T01:21:54.455Z,5.20
2023-02-20T01:24:21.910Z,6.13
2023-02-20T01:26:50.490Z,5.83
2023-02-20T01:29:18.866Z,5.37
2023-02-20T01:31:50.031Z,6.13
2023-02-20T01:34:19.101Z,5.40
2023-02-20T01:36:48.984Z,5.70
2023-02-20T01:39:18.548Z,5.50
2023-02-20T01:41:48.247Z,5.20
2023-02-20T01:44:21.765Z,5.27
2023-02-20T01:46:52.936Z,5.20
2023-02-20T01:49:29.551Z,5.27
2023-02-20T01:52:03.619Z,5.30
2023-02-20T01:54:32.536Z,4.60
2023-02-20T01:57:03.649Z,5.10
2023-02-20T01:59:34.239Z,5.20
2023-02-20T02:02:01.820Z,5.60
2023-02-20T02:04:30.514Z,5.73
2023-02-20T02:06:59.664Z,5.10
2023-02-20T02:09:39.992Z,5.23
2023-02-20T02:12:08.704Z,4.87
2023-02-20T02:14:36.129Z,5.07
2023-02-20T02:17:32.528Z,5.40
2023-02-20T02:20:51.117Z,4.73
2023-02-20T02:23:50.373Z,5.17
2023-02-20T02:26:46.205Z,5.10
2023-02-20T02:29:43.092Z,4.97
2023-02-20T02:32:52.294Z,4.77
2023-02-20T02:35:36.275Z,4.80
2023-02-20T02:38:14.749Z,4.93
2023-02-20T02:40:48.686Z,5.30
2023-02-20T02:43:20.589Z,5.47
2023-02-20T02:45:54.680Z,5.60
2023-02-20T02:48:28.938Z,6.10
2023-02-20T02:51:01.872Z,5.80
2023-02-20T02:53:30.718Z,5.90
2023-02-20T02:56:18.184Z,6.10
2023-02-20T02:58:45.718Z,6.10
2023-02-20T03:01:13.696Z,5.97
2023-02-20T03:03:44.299Z,5.77
2023-02-20T03:06:16.699Z,5.87
2023-02-20T03:08:50.128Z,6.80
2023-02-20T03:11:20.834Z,6.50
2023-02-20T03:14:10.660Z,6.03
2023-02-20T03:16:43.534Z,6.43
2023-02-20T03:19:14.000Z,6.80
2023-02-20T03:21:45.142Z,6.87
2023-02-20T03:24:17.355Z,6.40
2023-02-20T03:26:46.743Z,6.57
2023-02-20T03:29:19.511Z,6.63
2023-02-20T03:32:06.235Z,8.90
2023-02-20T03:34:51.857Z,6.33
2023-02-20T03:37:39.872Z,7.10
2023-02-20T03:40:30.460Z,6.77
2023-02-20T03:43:19.800Z,6.60
2023-02-20T03:45:48.917Z,7.10
2023-02-20T03:48:21.581Z,6.57
2023-02-20T03:51:07.122Z,7.37
2023-02-20T03:53:34.671Z,7.13
2023-02-20T03:56:06.408Z,6.80
2023-02-20T03:58:38.161Z,6.73
2023-02-20T04:01:07.737Z,7.20
2023-02-20T04:03:40.784Z,7.33
2023-02-20T04:06:12.329Z,6.93
2023-02-20T04:08:45.182Z,6.97
2023-02-20T04:11:19.785Z,7.37
2023-02-20T04:13:49.526Z,6.90
2023-02-20T04:16:17.323Z,6.93
2023-02-20T04:18:44.920Z,7.43
2023-02-20T04:21:20.327Z,7.57
2023-02-20T04:23:50.617Z,7.50
2023-02-20T04:26:22.404Z,7.70
2023-02-20T04:28:50.073Z,7.43
2023-02-20T04:31:19.968Z,7.63
2023-02-20T04:33:47.443Z,7.53
2023-02-20T04:36:15.107Z,6.87
2023-02-20T04:38:42.657Z,7.50
2023-02-20T04:41:10.081Z,7.37
2023-02-20T04:43:38.878Z,7.63
2023-02-20T04:46:06.605Z,6.37
2023-02-20T04:48:34.024Z,8.10
2023-02-20T04:51:02.996Z,7.20
2023-02-20T04:53:30.760Z,7.50
2023-02-20T04:55:58.164Z,7.43
2023-02-20T04:58:25.654Z,7.20
2023-02-20T05:00:54.366Z,7.43
2023-02-20T05:03:21.796Z,8.03
2023-02-20T05:05:49.275Z,6.50
2023-02-20T05:08:16.706Z,8.10
2023-02-20T05:10:44.123Z,6.70
2023-02-20T05:13:11.531Z,7.30
2023-02-20T05:15:39.063Z,8.40
2023-02-20T05:18:07.903Z,7.03
2023-02-20T05:20:52.690Z,7.67
2023-02-20T05:23:20.115Z,6.97
2023-02-20T05:25:47.534Z,8.17
2023-02-20T05:28:14.961Z,8.40
2023-02-20T05:30:42.497Z,7.67
2023-02-20T05:33:11.291Z,8.43
2023-02-20T05:35:39.986Z,8.13
2023-02-20T05:38:07.440Z,8.23
2023-02-20T05:40:34.863Z,7.80
2023-02-20T05:43:02.498Z,8.50
2023-02-20T05:45:29.939Z,8.63
2023-02-20T05:47:57.367Z,8.63
2023-02-20T05:50:26.125Z,8.37
2023-02-20T05:52:53.623Z,7.93
2023-02-20T05:55:21.182Z,8.07
2023-02-20T05:57:48.639Z,8.57
2023-02-20T06:00:16.682Z,8.40
2023-02-20T06:02:44.090Z,9.20
2023-02-20T06:05:11.514Z,8.27
2023-02-20T06:07:40.283Z,8.10
2023-02-20T06:10:07.996Z,8.77
2023-02-20T06:12:35.414Z,7.90
2023-02-20T06:15:02.971Z,8.10
2023-02-20T06:17:30.687Z,8.77
2023-02-20T06:19:58.106Z,8.20
2023-02-20T06:22:25.572Z,8.57
2023-02-20T06:24:54.350Z,8.00
2023-02-20T06:27:21.809Z,8.00
2023-02-20T06:29:49.462Z,8.27
2023-02-20T06:32:17.795Z,8.90
2023-02-20T06:34:45.780Z,9.17
2023-02-20T06:37:13.630Z,9.20
2023-02-20T06:39:44.113Z,9.23
2023-02-20T06:42:12.935Z,7.70
2023-02-20T06:44:40.469Z,9.63
2023-02-20T06:47:09.109Z,11.13
2023-02-20T06:49:36.697Z,10.90
2023-02-20T06:52:05.234Z,10.27
2023-02-20T06:54:33.922Z,11.40
2023-02-20T06:57:01.946Z,13.30
2023-02-20T06:59:30.699Z,11.37
2023-02-20T07:01:58.226Z,12.33
2023-02-20T07:04:28.018Z,11.57
2023-02-20T07:06:55.716Z,11.97
2023-02-20T07:09:25.162Z,12.53
2023-02-20T07:11:53.638Z,12.73
2023-02-20T07:14:21.242Z,12.23
2023-02-20T07:16:50.011Z,12.17
2023-02-20T07:19:17.472Z,12.47
2023-02-20T07:21:47.242Z,12.67
2023-02-20T07:24:15.554Z,11.93
2023-02-20T07:26:43.001Z,13.03
2023-02-20T07:29:10.746Z,12.30
2023-02-20T07:31:39.140Z,12.10
2023-02-20T07:34:08.251Z,11.77
2023-02-20T07:36:36.214Z,11.83
2023-02-20T07:39:06.644Z,13.00
2023-02-20T07:41:35.794Z,12.10
2023-02-20T07:44:03.437Z,11.37
2023-02-20T07:46:33.822Z,11.10
2023-02-20T07:49:02.652Z,11.80
2023-02-20T07:51:32.188Z,9.17
2023-02-20T07:53:59.856Z,11.23
2023-02-20T07:56:27.376Z,11.33
2023-02-20T07:58:54.928Z,10.10
2023-02-20T08:01:22.425Z,9.97
2023-02-20T08:03:49.948Z,9.20
2023-02-20T08:06:18.525Z,9.80
2023-02-20T08:08:50.374Z,9.20
2023-02-20T08:11:18.564Z,9.17
2023-02-20T08:13:46.293Z,9.47
2023-02-20T08:16:14.168Z,9.57
2023-02-20T08:18:41.817Z,8.93
2023-02-20T08:21:09.271Z,9.53
2023-02-20T08:23:36.819Z,8.93
2023-02-20T08:26:06.914Z,7.77
2023-02-20T08:28:37.878Z,8.93
2023-02-20T08:31:06.586Z,8.63
2023-02-20T08:33:34.010Z,7.53
2023-02-20T08:36:01.580Z,8.57
2023-02-20T08:38:31.085Z,8.33
2023-02-20T08:40:59.417Z,8.80
2023-02-20T08:43:28.450Z,8.13
2023-02-20T08:45:56.188Z,7.97
2023-02-20T08:48:23.717Z,7.60
2023-02-20T08:50:51.384Z,8.07
2023-02-20T08:53:19.011Z,7.47
2023-02-20T08:55:46.850Z,8.13
2023-02-20T08:58:14.396Z,7.50
2023-02-20T09:00:44.582Z,7.23
2023-02-20T09:03:12.042Z,7.50
2023-02-20T09:05:39.774Z,7.57
2023-02-20T09:08:07.219Z,6.40
2023-02-20T09:10:35.664Z,6.43
2023-02-20T09:13:03.332Z,7.27
2023-02-20T09:15:31.787Z,6.57
2023-02-20T09:18:00.539Z,6.57
2023-02-20T09:20:27.983Z,6.60
2023-02-20T09:22:59.294Z,6.40
2023-02-20T09:25:26.960Z,6.97
2023-02-20T09:27:54.495Z,6.63
2023-02-20T09:30:22.218Z,6.33
2023-02-20T09:32:50.445Z,6.33
2023-02-20T09:35:21.805Z,5.80
2023-02-20T09:37:50.063Z,6.05
2023-02-20T09:40:22.154Z,6.07
2023-02-20T09:43:07.047Z,6.77
2023-02-20T09:45:38.020Z,6.07
2023-02-20T09:48:20.475Z,5.70
2023-02-20T09:50:55.165Z,5.47
2023-02-20T09:53:28.210Z,5.13
2023-02-20T09:55:57.369Z,5.60
2023-02-20T09:58:29.794Z,5.93
2023-02-20T10:01:02.474Z,5.60
2023-02-20T10:03:40.220Z,4.90
2023-02-20T10:06:16.984Z,5.07
2023-02-20T10:08:44.578Z,5.57
2023-02-20T10:11:20.394Z,5.87
2023-02-20T10:13:58.860Z,5.60
2023-02-20T10:16:33.990Z,5.70
2023-02-20T10:19:10.103Z,5.37
2023-02-20T10:21:50.283Z,5.63
2023-02-20T10:24:29.165Z,5.60
2023-02-20T10:27:05.756Z,4.77
2023-02-20T10:29:36.783Z,5.53
2023-02-20T10:32:10.312Z,4.77
2023-02-20T10:34:42.337Z,5.47
2023-02-20T10:37:14.963Z,5.40
2023-02-20T10:39:49.322Z,5.90
2023-02-20T10:42:22.047Z,5.20
2023-02-20T10:44:58.642Z,5.33
2023-02-20T10:47:31.646Z,5.40
2023-02-20T10:50:03.239Z,5.30
2023-02-20T10:52:36.975Z,4.53
2023-02-20T10:55:10.982Z,5.00
2023-02-20T10:57:42.804Z,4.90
2023-02-20T11:00:14.885Z,4.67
2023-02-20T11:02:47.126Z,4.80
2023-02-20T11:05:18.377Z,4.60
2023-02-20T11:07:47.178Z,4.27
2023-02-20T11:10:14.609Z,4.63
2023-02-20T11:12:45.917Z,5.10
2023-02-20T11:15:18.137Z,4.93
2023-02-20T11:17:46.395Z,5.00
2023-02-20T11:20:41.442Z,4.37
2023-02-20T11:23:11.553Z,4.70
2023-02-20T11:25:41.925Z,4.27
2023-02-20T11:28:12.456Z,4.70
2023-02-20T11:30:42.668Z,4.27
2023-02-20T11:33:15.238Z,4.67
2023-02-20T11:35:44.002Z,4.63
2023-02-20T11:38:30.074Z,5.17
2023-02-20T11:41:26.420Z,4.67
2023-02-20T11:44:22.233Z,5.00
2023-02-20T11:47:10.648Z,5.23
2023-02-20T11:49:38.593Z,4.67
2023-02-20T11:52:16.584Z,5.17
2023-02-20T11:54:47.087Z,5.27
2023-02-20T11:57:25.526Z,5.47
2023-02-20T12:00:09.593Z,5.37
2023-02-20T12:02:37.166Z,5.57
2023-02-20T12:05:10.841Z,5.20
2023-02-20T12:07:41.606Z,6.03
2023-02-20T12:10:32.829Z,7.17
2023-02-20T12:13:00.620Z,6.80
2023-02-20T12:15:29.964Z,7.13
2023-02-20T12:18:28.038Z,6.37
2023-02-20T12:21:03.304Z,6.70
2023-02-20T12:23:40.388Z,6.80
2023-02-20T12:26:19.363Z,7.13
2023-02-20T12:28:57.739Z,6.20
2023-02-20T12:31:36.238Z,6.70
2023-02-20T12:34:25.082Z,7.17
2023-02-20T12:36:59.553Z,8.70
2023-02-20T12:39:37.886Z,7.77
2023-02-20T12:42:17.417Z,8.17
2023-02-20T12:45:10.030Z,8.40
2023-02-20T12:47:40.737Z,8.73
2023-02-20T12:50:19.850Z,8.50
2023-02-20T12:52:59.765Z,9.27
2023-02-20T12:55:34.154Z,9.77
2023-02-20T12:58:16.113Z,9.37
2023-02-20T13:00:48.275Z,10.40
2023-02-20T13:03:20.375Z,11.03
2023-02-20T13:05:50.870Z,11.33
2023-02-20T13:08:24.723Z,11.87
2023-02-20T13:10:56.909Z,12.23
2023-02-20T13:13:29.939Z,11.70
2023-02-20T13:16:02.461Z,19.00
2023-02-20T13:18:40.755Z,13.60
2023-02-20T13:21:12.775Z,13.87
2023-02-20T13:23:42.051Z,14.17
2023-02-20T13:26:52.294Z,13.23
2023-02-20T13:29:24.415Z,13.90
2023-02-20T13:31:53.730Z,13.70
2023-02-20T13:34:30.449Z,13.50
2023-02-20T13:36:58.718Z,13.37
2023-02-20T13:39:47.303Z,13.00
2023-02-20T13:42:35.972Z,14.23
2023-02-20T13:45:37.623Z,13.93
2023-02-20T13:48:38.767Z,14.70
2023-02-20T13:51:32.320Z,13.27
2023-02-20T13:54:13.016Z,14.30
2023-02-20T13:56:47.979Z,13.00
2023-02-20T13:59:19.026Z,13.03
2023-02-20T14:02:13.516Z,14.27
2023-02-20T14:04:41.033Z,13.30
2023-02-20T14:07:08.465Z,12.53
2023-02-20T14:09:35.853Z,12.93
2023-02-20T14:12:12.275Z,13.57
2023-02-20T14:14:44.289Z,13.10
2023-02-20T14:17:18.107Z,13.13
2023-02-20T14:19:47.531Z,22.63
2023-02-20T14:22:27.847Z,18.30
2023-02-20T14:25:17.527Z,18.00
2023-02-20T14:27:45.518Z,13.57
2023-02-20T14:30:16.684Z,13.47
2023-02-20T14:32:47.264Z,11.57
2023-02-20T14:35:32.891Z,10.47
2023-02-20T14:38:14.352Z,9.20
2023-02-20T14:40:43.655Z,9.60
2023-02-20T14:43:16.977Z,10.17
2023-02-20T14:45:45.556Z,9.83
2023-02-20T14:48:25.442Z,9.80
2023-02-20T14:51:13.551Z,9.67
2023-02-20T14:53:41.558Z,9.93
2023-02-20T14:56:14.622Z,9.60
2023-02-20T14:58:42.802Z,9.77
2023-02-20T15:01:19.825Z,10.00
2023-02-20T15:04:00.713Z,8.77
2023-02-20T15:06:30.923Z,9.03
2023-02-20T15:09:02.176Z,8.40
2023-02-20T15:11:33.553Z,8.53
2023-02-20T15:14:02.255Z,8.27
2023-02-20T15:16:32.668Z,7.93
2023-02-20T15:19:01.531Z,8.53
2023-02-20T15:21:37.667Z,8.10
2023-02-20T15:24:38.422Z,8.10
2023-02-20T15:27:15.541Z,7.57
2023-02-20T15:29:44.576Z,7.80
2023-02-20T15:32:22.622Z,7.77
2023-02-20T15:34:56.887Z,7.93
2023-02-20T15:37:33.900Z,7.87
2023-02-20T15:40:20.081Z,8.03
2023-02-20T15:42:48.117Z,8.27
2023-02-20T15:45:15.921Z,7.57
2023-02-20T15:47:43.613Z,7.93
2023-02-20T15:50:12.465Z,7.93
2023-02-20T15:52:40.012Z,8.33
2023-02-20T15:55:07.909Z,8.03
2023-02-20T15:57:35.372Z,8.37
2023-02-20T16:00:03.267Z,8.43
2023-02-20T16:02:33.062Z,8.03
2023-02-20T16:05:02.630Z,9.20
2023-02-20T16:07:31.429Z,8.73
2023-02-20T16:09:59.010Z,10.13
2023-02-20T16:12:31.756Z,9.00
2023-02-20T16:14:59.319Z,8.70
2023-02-20T16:17:29.028Z,9.93
2023-02-20T16:19:56.646Z,8.90
2023-02-20T16:22:24.395Z,10.03
2023-02-20T16:24:53.277Z,9.33
2023-02-20T16:27:24.922Z,8.90
2023-02-20T16:29:54.006Z,9.50
2023-02-20T16:32:24.585Z,8.77
2023-02-20T16:34:53.496Z,9.57
2023-02-20T16:37:21.665Z,9.70
2023-02-20T16:39:49.551Z,10.37
2023-02-20T16:42:25.614Z,9.50
2023-02-20T16:44:55.126Z,9.97
2023-02-20T16:47:25.391Z,9.27
2023-02-20T16:49:53.636Z,9.70
2023-02-20T16:52:26.111Z,9.57
2023-02-20T16:54:55.330Z,9.03
2023-02-20T16:57:25.230Z,8.90
2023-02-20T16:59:55.696Z,9.00
2023-02-20T17:02:26.068Z,8.63
2023-02-20T17:04:53.695Z,8.53
2023-02-20T17:07:21.578Z,9.70
2023-02-20T17:09:49.200Z,9.93
2023-02-20T17:12:19.181Z,9.27
2023-02-20T17:14:48.987Z,9.43
2023-02-20T17:17:17.061Z,9.30
2023-02-20T17:19:45.233Z,9.77
2023-02-20T17:22:14.518Z,9.57
2023-02-20T17:24:43.271Z,9.33
2023-02-20T17:27:12.262Z,9.10
2023-02-20T17:29:40.288Z,9.10
2023-02-20T17:32:09.196Z,9.17
2023-02-20T17:34:36.671Z,8.60
2023-02-20T17:37:04.348Z,8.70
2023-02-20T17:39:31.905Z,8.77
2023-02-20T17:41:59.668Z,8.23
2023-02-20T17:44:29.411Z,9.03
2023-02-20T17:46:58.784Z,8.60
2023-02-20T17:49:28.391Z,8.20
2023-02-20T17:51:58.572Z,9.17
2023-02-20T17:54:26.520Z,8.47
2023-02-20T17:56:54.104Z,8.50
2023-02-20T17:59:23.666Z,8.50
2023-02-20T18:01:52.008Z,7.47
2023-02-20T18:04:21.178Z,7.93
2023-02-20T18:06:50.319Z,8.20
2023-02-20T18:09:18.990Z,8.77
2023-02-20T18:11:47.139Z,9.67
2023-02-20T18:14:15.513Z,8.77
2023-02-20T18:16:43.080Z,9.47
2023-02-20T18:19:13.721Z,9.10
2023-02-20T18:21:42.661Z,9.27
2023-02-20T18:24:13.015Z,8.67
2023-02-20T18:26:40.496Z,9.33
2023-02-20T18:29:08.313Z,8.60
2023-02-20T18:31:36.038Z,10.00
2023-02-20T18:34:03.762Z,10.20
2023-02-20T18:36:31.261Z,9.73
2023-02-20T18:38:58.954Z,10.53
2023-02-20T18:41:28.177Z,11.10
2023-02-20T18:43:55.754Z,10.60
2023-02-20T18:46:28.187Z,10.43
2023-02-20T18:48:56.173Z,11.00
2023-02-20T18:51:27.990Z,10.63
2023-02-20T18:53:55.605Z,11.20
2023-02-20T18:56:23.542Z,11.03
2023-02-20T18:58:52.457Z,11.00
2023-02-20T19:01:20.738Z,10.50
2023-02-20T19:03:49.322Z,11.10
2023-02-20T19:06:27.706Z,11.80
2023-02-20T19:08:55.599Z,11.80
2023-02-20T19:11:23.703Z,11.00
2023-02-20T19:13:52.970Z,11.23
2023-02-20T19:16:20.568Z,11.83
2023-02-20T19:18:50.622Z,11.17
2023-02-20T19:21:19.540Z,12.10
2023-02-20T19:23:47.393Z,12.33
2023-02-20T19:26:15.473Z,11.03
2023-02-20T19:28:43.134Z,11.80
2023-02-20T19:31:13.336Z,12.20
2023-02-20T19:33:41.128Z,11.87
2023-02-20T19:36:10.470Z,11.33
2023-02-20T19:38:38.717Z,11.63
2023-02-20T19:41:06.412Z,11.20
2023-02-20T19:43:33.884Z,11.10
2023-02-20T19:46:01.412Z,9.77
2023-02-20T19:48:30.157Z,11.07
2023-02-20T19:50:58.055Z,10.50
2023-02-20T19:53:25.509Z,10.63
2023-02-20T19:55:54.589Z,10.30
2023-02-20T19:58:22.288Z,10.33
2023-02-20T20:00:49.989Z,9.73
2023-02-20T20:03:18.135Z,10.23
2023-02-20T20:05:46.950Z,9.83
2023-02-20T20:08:14.544Z,10.20
2023-02-20T20:10:42.093Z,9.77
2023-02-20T20:13:09.506Z,10.10
2023-02-20T20:15:37.102Z,9.73
2023-02-20T20:18:05.404Z,9.43
2023-02-20T20:20:35.986Z,10.83
2023-02-20T20:23:06.022Z,9.13
2023-02-20T20:25:33.755Z,9.23
2023-02-20T20:28:02.737Z,8.93
2023-02-20T20:30:31.901Z,8.97
2023-02-20T20:32:59.690Z,9.00
2023-02-20T20:35:29.844Z,8.63
2023-02-20T20:37:57.335Z,8.93
2023-02-20T20:40:27.057Z,8.43
2023-02-20T20:42:55.033Z,8.50
2023-02-20T20:45:23.916Z,8.33
2023-02-20T20:47:51.838Z,8.43
2023-02-20T20:50:21.861Z,8.37
2023-02-20T20:52:49.694Z,8.07
2023-02-20T20:55:17.672Z,7.97
2023-02-20T20:57:46.737Z,8.53
2023-02-20T21:00:22.375Z,8.70
2023-02-20T21:02:50.581Z,8.70
2023-02-20T21:05:19.157Z,8.47
2023-02-20T21:07:46.719Z,8.70
2023-02-20T21:10:14.563Z,8.70
2023-02-20T21:12:42.038Z,8.57
2023-02-20T21:15:13.531Z,8.53
2023-02-20T21:17:42.826Z,8.33
2023-02-20T21:20:14.557Z,8.50
2023-02-20T21:22:41.986Z,8.73
2023-02-20T21:25:09.859Z,8.67
2023-02-20T21:27:37.331Z,8.10
2023-02-20T21:30:06.008Z,8.30
2023-02-20T21:32:34.892Z,8.73
2023-02-20T21:35:02.502Z,7.83
2023-02-20T21:37:29.960Z,7.67
2023-02-20T21:39:57.414Z,7.93
2023-02-20T21:42:42.864Z,7.97
2023-02-20T21:45:10.793Z,7.80
2023-02-20T21:47:39.646Z,8.37
2023-02-20T21:50:08.528Z,7.40
2023-02-20T21:52:37.423Z,7.40
2023-02-20T21:55:07.640Z,7.63
2023-02-20T21:57:35.043Z,7.33
2023-02-20T22:00:01.678Z,7.87
2023-02-20T22:02:28.263Z,7.43
2023-02-20T22:04:56.039Z,7.40
2023-02-20T22:07:41.133Z,7.63
2023-02-20T22:10:27.493Z,7.80
2023-02-20T22:13:12.352Z,7.87
2023-02-20T22:15:57.819Z,7.60
2023-02-20T22:18:42.659Z,7.60
2023-02-20T22:21:29.222Z,7.63
2023-02-20T22:24:14.190Z,7.23
2023-02-20T22:26:59.052Z,7.50
2023-02-20T22:29:43.925Z,7.17
2023-02-20T22:32:29.102Z,7.47
2023-02-20T22:35:14.155Z,7.60
2023-02-20T22:38:03.141Z,6.67
2023-02-20T22:40:48.214Z,7.67
2023-02-20T22:43:33.684Z,7.70
2023-02-20T22:46:18.879Z,8.33
2023-02-20T22:49:03.956Z,8.47
2023-02-20T22:51:48.871Z,8.33
2023-02-20T22:54:35.385Z,7.50
2023-02-20T22:57:20.336Z,8.70
2023-02-20T23:00:05.310Z,8.87
2023-02-20T23:02:51.059Z,8.60
2023-02-20T23:05:36.535Z,8.40
2023-02-20T23:08:21.901Z,8.03
2023-02-20T23:11:08.444Z,8.33
2023-02-20T23:13:53.351Z,8.13
2023-02-20T23:16:39.185Z,8.33
2023-02-20T23:19:24.545Z,8.13
2023-02-20T23:22:09.423Z,7.53
2023-02-20T23:24:54.887Z,7.60
2023-02-20T23:27:41.844Z,7.67
2023-02-20T23:30:28.198Z,7.70
2023-02-20T23:33:13.150Z,8.07
2023-02-20T23:35:57.918Z,6.93
2023-02-20T23:38:42.770Z,7.80
2023-02-20T23:41:28.099Z,8.00
2023-02-20T23:44:14.646Z,7.07
2023-02-20T23:47:02.523Z,7.20
2023-02-20T23:49:47.982Z,6.03
2023-02-20T23:52:32.885Z,6.47
2023-02-20T23:55:18.208Z,6.87
2023-02-20T23:58:03.394Z,6.60
